sensor_id;sensor_type;location;lat;lon;timestamp;noise_LAeq;noise_LA_min;noise_LA_max;noise_LA01;noise_LA95
73663;Laerm;61956;52.540;13.382;2022-11-18T00:00:17;42.53;37.54;58.17;;
73663;Laerm;61956;52.540;13.382;2022-11-18T00:02:49;41.31;38.10;49.69;;
73663;Laerm;61956;52.540;13.382;2022-11-18T00:05:18;40.94;37.97;49.62;;
73663;Laerm;61956;52.540;13.382;2022-11-18T00:07:48;42.81;38.93;53.58;;
73663;Laerm;61956;52.540;13.382;2022-11-18T00:10:17;42.77;38.97;51.38;;
73663;Laerm;61956;52.540;13.382;2022-11-18T00:12:47;42.23;38.58;49.28;;
73663;Laerm;61956;52.540;13.382;2022-11-18T00:15:28;40.98;37.55;53.61;;
73663;Laerm;61956;52.540;13.382;2022-11-18T00:18:00;43.02;38.56;54.69;;
73663;Laerm;61956;52.540;13.382;2022-11-18T00:20:30;42.22;38.67;50.44;;
73663;Laerm;61956;52.540;13.382;2022-11-18T00:23:00;44.52;39.23;54.67;;
73663;Laerm;61956;52.540;13.382;2022-11-18T00:25:48;41.12;37.77;57.09;;
73663;Laerm;61956;52.540;13.382;2022-11-18T00:28:18;42.65;37.40;54.43;;
73663;Laerm;61956;52.540;13.382;2022-11-18T00:30:47;41.00;37.66;49.26;;
73663;Laerm;61956;52.540;13.382;2022-11-18T00:33:19;41.72;37.30;53.16;;
73663;Laerm;61956;52.540;13.382;2022-11-18T00:35:52;42.95;39.58;50.40;;
73663;Laerm;61956;52.540;13.382;2022-11-18T00:38:23;42.93;39.21;55.11;;
73663;Laerm;61956;52.540;13.382;2022-11-18T00:40:59;43.72;39.25;57.11;;
73663;Laerm;61956;52.540;13.382;2022-11-18T00:43:29;42.71;38.65;55.58;;
73663;Laerm;61956;52.540;13.382;2022-11-18T00:45:56;42.55;38.38;50.39;;
73663;Laerm;61956;52.540;13.382;2022-11-18T00:48:28;41.28;38.21;48.19;;
73663;Laerm;61956;52.540;13.382;2022-11-18T00:51:06;41.29;37.64;50.81;;
73663;Laerm;61956;52.540;13.382;2022-11-18T00:53:36;43.10;38.05;60.76;;
73663;Laerm;61956;52.540;13.382;2022-11-18T00:56:07;42.50;38.64;54.09;;
73663;Laerm;61956;52.540;13.382;2022-11-18T00:58:37;47.84;38.91;75.24;;
73663;Laerm;61956;52.540;13.382;2022-11-18T01:01:06;43.81;40.40;49.92;;
73663;Laerm;61956;52.540;13.382;2022-11-18T01:03:38;45.01;42.19;54.41;;
73663;Laerm;61956;52.540;13.382;2022-11-18T01:06:08;43.96;40.56;49.55;;
73663;Laerm;61956;52.540;13.382;2022-11-18T01:08:37;44.66;40.13;57.71;;
73663;Laerm;61956;52.540;13.382;2022-11-18T01:11:06;42.12;37.95;52.88;;
73663;Laerm;61956;52.540;13.382;2022-11-18T01:13:48;42.10;38.77;50.56;;
73663;Laerm;61956;52.540;13.382;2022-11-18T01:16:19;42.26;38.58;49.12;;
73663;Laerm;61956;52.540;13.382;2022-11-18T01:18:51;42.49;39.27;51.33;;
73663;Laerm;61956;52.540;13.382;2022-11-18T01:21:20;42.44;39.80;45.49;;
73663;Laerm;61956;52.540;13.382;2022-11-18T01:23:50;41.79;37.28;48.36;;
73663;Laerm;61956;52.540;13.382;2022-11-18T01:26:19;40.24;37.42;43.56;;
73663;Laerm;61956;52.540;13.382;2022-11-18T01:28:48;46.38;38.40;69.65;;
73663;Laerm;61956;52.540;13.382;2022-11-18T01:31:18;42.18;38.64;52.09;;
73663;Laerm;61956;52.540;13.382;2022-11-18T01:33:50;43.38;39.70;51.66;;
73663;Laerm;61956;52.540;13.382;2022-11-18T01:36:22;44.80;39.86;60.56;;
73663;Laerm;61956;52.540;13.382;2022-11-18T01:38:53;43.87;39.60;51.98;;
73663;Laerm;61956;52.540;13.382;2022-11-18T01:41:25;44.03;39.14;54.12;;
73663;Laerm;61956;52.540;13.382;2022-11-18T01:43:58;40.64;37.50;50.14;;
73663;Laerm;61956;52.540;13.382;2022-11-18T01:46:29;43.55;38.07;54.61;;
73663;Laerm;61956;52.540;13.382;2022-11-18T01:49:06;41.55;37.96;54.27;;
73663;Laerm;61956;52.540;13.382;2022-11-18T01:51:44;40.93;37.09;51.07;;
73663;Laerm;61956;52.540;13.382;2022-11-18T01:54:20;43.65;37.66;60.70;;
73663;Laerm;61956;52.540;13.382;2022-11-18T01:56:59;40.92;37.86;48.26;;
73663;Laerm;61956;52.540;13.382;2022-11-18T01:59:35;43.49;38.88;56.86;;
73663;Laerm;61956;52.540;13.382;2022-11-18T02:02:09;42.11;39.47;46.37;;
73663;Laerm;61956;52.540;13.382;2022-11-18T02:04:49;41.94;37.97;49.89;;
73663;Laerm;61956;52.540;13.382;2022-11-18T02:07:21;40.84;36.64;57.76;;
73663;Laerm;61956;52.540;13.382;2022-11-18T02:09:51;40.54;37.07;52.42;;
73663;Laerm;61956;52.540;13.382;2022-11-18T02:12:21;46.82;37.67;65.38;;
73663;Laerm;61956;52.540;13.382;2022-11-18T02:14:51;43.26;38.54;61.64;;
73663;Laerm;61956;52.540;13.382;2022-11-18T02:17:35;47.39;37.74;65.83;;
73663;Laerm;61956;52.540;13.382;2022-11-18T02:20:36;42.21;37.41;53.19;;
73663;Laerm;61956;52.540;13.382;2022-11-18T02:30:09;41.77;38.68;47.29;;
73663;Laerm;61956;52.540;13.382;2022-11-18T02:32:43;42.21;38.31;48.35;;
73663;Laerm;61956;52.540;13.382;2022-11-18T02:35:23;40.58;37.45;46.29;;
73663;Laerm;61956;52.540;13.382;2022-11-18T02:38:01;40.55;37.67;45.37;;
73663;Laerm;61956;52.540;13.382;2022-11-18T02:40:34;41.96;37.82;50.94;;
73663;Laerm;61956;52.540;13.382;2022-11-18T02:43:08;40.57;37.59;46.57;;
73663;Laerm;61956;52.540;13.382;2022-11-18T02:45:49;42.49;38.10;53.32;;
73663;Laerm;61956;52.540;13.382;2022-11-18T02:48:23;42.89;38.06;55.79;;
73663;Laerm;61956;52.540;13.382;2022-11-18T02:50:55;42.40;38.97;52.77;;
73663;Laerm;61956;52.540;13.382;2022-11-18T02:53:29;41.71;38.45;48.56;;
73663;Laerm;61956;52.540;13.382;2022-11-18T02:56:01;44.14;39.12;54.62;;
73663;Laerm;61956;52.540;13.382;2022-11-18T02:58:31;41.71;38.77;50.07;;
73663;Laerm;61956;52.540;13.382;2022-11-18T03:01:03;41.49;38.62;46.67;;
73663;Laerm;61956;52.540;13.382;2022-11-18T03:03:34;43.68;39.54;52.56;;
73663;Laerm;61956;52.540;13.382;2022-11-18T03:06:12;44.44;39.58;56.61;;
73663;Laerm;61956;52.540;13.382;2022-11-18T03:08:48;43.78;39.80;54.05;;
73663;Laerm;61956;52.540;13.382;2022-11-18T03:11:24;42.16;37.94;54.55;;
73663;Laerm;61956;52.540;13.382;2022-11-18T03:14:07;41.01;37.95;51.05;;
73663;Laerm;61956;52.540;13.382;2022-11-18T03:16:50;40.63;37.31;48.68;;
73663;Laerm;61956;52.540;13.382;2022-11-18T03:19:34;41.27;38.02;44.73;;
73663;Laerm;61956;52.540;13.382;2022-11-18T03:22:17;42.88;40.20;46.79;;
73663;Laerm;61956;52.540;13.382;2022-11-18T03:25:00;42.71;39.44;45.86;;
73663;Laerm;61956;52.540;13.382;2022-11-18T03:27:34;42.79;39.12;49.40;;
73663;Laerm;61956;52.540;13.382;2022-11-18T03:30:09;41.84;38.05;50.23;;
73663;Laerm;61956;52.540;13.382;2022-11-18T03:32:49;42.33;38.50;55.16;;
73663;Laerm;61956;52.540;13.382;2022-11-18T03:35:24;42.45;39.07;48.37;;
73663;Laerm;61956;52.540;13.382;2022-11-18T03:38:00;44.43;39.33;58.35;;
73663;Laerm;61956;52.540;13.382;2022-11-18T03:40:34;42.42;39.52;50.39;;
73663;Laerm;61956;52.540;13.382;2022-11-18T03:43:11;41.94;39.21;45.66;;
73663;Laerm;61956;52.540;13.382;2022-11-18T03:45:46;42.50;39.13;55.47;;
73663;Laerm;61956;52.540;13.382;2022-11-18T03:48:24;43.55;39.89;54.15;;
73663;Laerm;61956;52.540;13.382;2022-11-18T03:51:00;43.33;39.79;51.52;;
73663;Laerm;61956;52.540;13.382;2022-11-18T03:53:36;44.04;40.15;55.97;;
73663;Laerm;61956;52.540;13.382;2022-11-18T03:56:12;44.26;38.52;53.66;;
73663;Laerm;61956;52.540;13.382;2022-11-18T03:58:49;42.71;37.99;53.28;;
73663;Laerm;61956;52.540;13.382;2022-11-18T04:01:29;41.91;39.00;49.85;;
73663;Laerm;61956;52.540;13.382;2022-11-18T04:04:04;42.79;40.11;46.34;;
73663;Laerm;61956;52.540;13.382;2022-11-18T04:06:38;44.39;41.21;51.80;;
73663;Laerm;61956;52.540;13.382;2022-11-18T04:09:15;45.89;42.78;55.60;;
73663;Laerm;61956;52.540;13.382;2022-11-18T04:11:54;44.77;41.65;50.49;;
73663;Laerm;61956;52.540;13.382;2022-11-18T04:14:34;44.56;42.02;47.97;;
73663;Laerm;61956;52.540;13.382;2022-11-18T04:17:07;45.82;42.38;55.66;;
73663;Laerm;61956;52.540;13.382;2022-11-18T04:19:40;44.78;42.54;49.84;;
73663;Laerm;61956;52.540;13.382;2022-11-18T04:22:10;43.92;41.39;46.47;;
73663;Laerm;61956;52.540;13.382;2022-11-18T04:24:40;45.49;40.73;52.27;;
73663;Laerm;61956;52.540;13.382;2022-11-18T04:27:09;44.47;40.59;55.05;;
73663;Laerm;61956;52.540;13.382;2022-11-18T04:29:39;43.35;40.00;51.03;;
73663;Laerm;61956;52.540;13.382;2022-11-18T04:32:08;44.73;40.23;59.48;;
73663;Laerm;61956;52.540;13.382;2022-11-18T04:34:40;43.69;40.14;55.35;;
73663;Laerm;61956;52.540;13.382;2022-11-18T04:37:09;43.13;39.99;49.53;;
73663;Laerm;61956;52.540;13.382;2022-11-18T04:39:38;46.42;40.50;61.92;;
73663;Laerm;61956;52.540;13.382;2022-11-18T04:42:07;44.65;40.44;53.49;;
73663;Laerm;61956;52.540;13.382;2022-11-18T04:44:37;44.31;40.57;51.64;;
73663;Laerm;61956;52.540;13.382;2022-11-18T04:47:06;45.11;41.10;50.71;;
73663;Laerm;61956;52.540;13.382;2022-11-18T04:49:36;44.31;40.60;53.24;;
73663;Laerm;61956;52.540;13.382;2022-11-18T04:52:07;43.67;39.76;52.78;;
73663;Laerm;61956;52.540;13.382;2022-11-18T04:54:37;43.91;40.43;51.76;;
73663;Laerm;61956;52.540;13.382;2022-11-18T04:57:06;44.16;40.21;58.69;;
73663;Laerm;61956;52.540;13.382;2022-11-18T04:59:35;44.70;39.41;50.72;;
73663;Laerm;61956;52.540;13.382;2022-11-18T05:02:05;44.62;40.77;52.54;;
73663;Laerm;61956;52.540;13.382;2022-11-18T05:04:34;44.45;40.60;53.88;;
73663;Laerm;61956;52.540;13.382;2022-11-18T05:07:07;45.62;41.04;53.30;;
73663;Laerm;61956;52.540;13.382;2022-11-18T05:09:36;45.05;40.39;54.46;;
73663;Laerm;61956;52.540;13.382;2022-11-18T05:12:10;45.44;39.79;55.23;;
73663;Laerm;61956;52.540;13.382;2022-11-18T05:14:52;45.27;41.58;54.00;;
73663;Laerm;61956;52.540;13.382;2022-11-18T05:17:21;44.68;40.99;50.54;;
73663;Laerm;61956;52.540;13.382;2022-11-18T05:19:51;43.55;40.58;49.14;;
73663;Laerm;61956;52.540;13.382;2022-11-18T05:22:23;45.22;40.39;53.93;;
73663;Laerm;61956;52.540;13.382;2022-11-18T05:24:53;45.37;41.00;55.11;;
73663;Laerm;61956;52.540;13.382;2022-11-18T05:27:23;45.37;41.17;57.39;;
73663;Laerm;61956;52.540;13.382;2022-11-18T05:29:52;46.44;42.27;53.29;;
73663;Laerm;61956;52.540;13.382;2022-11-18T05:32:21;45.69;41.52;53.93;;
73663;Laerm;61956;52.540;13.382;2022-11-18T05:34:50;46.92;42.93;61.65;;
73663;Laerm;61956;52.540;13.382;2022-11-18T05:37:22;46.00;41.22;59.54;;
73663;Laerm;61956;52.540;13.382;2022-11-18T05:39:51;45.21;40.98;52.78;;
73663;Laerm;61956;52.540;13.382;2022-11-18T05:42:20;46.48;42.78;58.57;;
73663;Laerm;61956;52.540;13.382;2022-11-18T05:45:03;45.96;41.52;53.80;;
73663;Laerm;61956;52.540;13.382;2022-11-18T05:47:32;45.10;41.50;49.60;;
73663;Laerm;61956;52.540;13.382;2022-11-18T05:50:21;45.66;41.25;55.61;;
73663;Laerm;61956;52.540;13.382;2022-11-18T05:52:54;46.15;41.63;54.49;;
73663;Laerm;61956;52.540;13.382;2022-11-18T05:55:28;46.63;42.15;54.20;;
73663;Laerm;61956;52.540;13.382;2022-11-18T05:57:57;46.43;41.47;58.14;;
73663;Laerm;61956;52.540;13.382;2022-11-18T06:00:28;45.36;41.05;53.76;;
73663;Laerm;61956;52.540;13.382;2022-11-18T06:02:58;46.51;40.90;58.83;;
73663;Laerm;61956;52.540;13.382;2022-11-18T06:05:28;46.98;41.47;60.03;;
73663;Laerm;61956;52.540;13.382;2022-11-18T06:08:00;46.95;41.04;61.14;;
73663;Laerm;61956;52.540;13.382;2022-11-18T06:10:35;45.17;40.64;57.79;;
73663;Laerm;61956;52.540;13.382;2022-11-18T06:13:10;46.19;41.85;54.09;;
73663;Laerm;61956;52.540;13.382;2022-11-18T06:15:44;45.61;41.52;51.97;;
73663;Laerm;61956;52.540;13.382;2022-11-18T06:18:19;46.21;41.24;57.65;;
73663;Laerm;61956;52.540;13.382;2022-11-18T06:20:53;46.37;41.92;54.30;;
73663;Laerm;61956;52.540;13.382;2022-11-18T06:23:30;46.37;41.92;54.30;;
73663;Laerm;61956;52.540;13.382;2022-11-18T06:26:01;47.24;42.81;56.45;;
73663;Laerm;61956;52.540;13.382;2022-11-18T06:28:31;46.90;43.03;56.31;;
73663;Laerm;61956;52.540;13.382;2022-11-18T06:31:00;46.34;41.25;55.55;;
73663;Laerm;61956;52.540;13.382;2022-11-18T06:33:30;46.66;42.68;56.35;;
73663;Laerm;61956;52.540;13.382;2022-11-18T06:35:59;48.77;43.79;59.15;;
73663;Laerm;61956;52.540;13.382;2022-11-18T06:38:31;48.85;44.49;55.66;;
73663;Laerm;61956;52.540;13.382;2022-11-18T06:41:00;49.49;44.60;58.40;;
73663;Laerm;61956;52.540;13.382;2022-11-18T06:43:29;48.38;44.05;60.35;;
73663;Laerm;61956;52.540;13.382;2022-11-18T06:46:09;49.15;43.51;56.59;;
73663;Laerm;61956;52.540;13.382;2022-11-18T06:48:51;48.13;43.76;54.51;;
73663;Laerm;61956;52.540;13.382;2022-11-18T06:51:21;49.26;43.49;60.32;;
73663;Laerm;61956;52.540;13.382;2022-11-18T06:53:53;48.84;44.29;60.80;;
73663;Laerm;61956;52.540;13.382;2022-11-18T06:56:23;48.93;43.56;58.46;;
73663;Laerm;61956;52.540;13.382;2022-11-18T06:58:53;57.37;44.24;83.73;;
73663;Laerm;61956;52.540;13.382;2022-11-18T07:01:27;49.65;43.74;58.12;;
73663;Laerm;61956;52.540;13.382;2022-11-18T07:03:59;49.19;43.74;56.80;;
73663;Laerm;61956;52.540;13.382;2022-11-18T07:06:31;48.28;43.55;58.92;;
73663;Laerm;61956;52.540;13.382;2022-11-18T07:09:05;48.11;43.23;59.25;;
73663;Laerm;61956;52.540;13.382;2022-11-18T07:11:35;50.42;44.37;62.59;;
73663;Laerm;61956;52.540;13.382;2022-11-18T07:14:06;49.85;44.34;69.05;;
73663;Laerm;61956;52.540;13.382;2022-11-18T07:16:36;50.30;44.64;63.82;;
73663;Laerm;61956;52.540;13.382;2022-11-18T07:19:11;48.17;42.79;59.56;;
73663;Laerm;61956;52.540;13.382;2022-11-18T07:21:41;49.49;44.60;62.81;;
73663;Laerm;61956;52.540;13.382;2022-11-18T07:24:15;50.52;45.20;59.11;;
73663;Laerm;61956;52.540;13.382;2022-11-18T07:26:44;49.12;43.62;57.39;;
73663;Laerm;61956;52.540;13.382;2022-11-18T07:29:14;48.23;43.56;55.19;;
73663;Laerm;61956;52.540;13.382;2022-11-18T07:31:43;49.91;44.12;57.89;;
73663;Laerm;61956;52.540;13.382;2022-11-18T07:34:12;49.48;43.99;60.61;;
73663;Laerm;61956;52.540;13.382;2022-11-18T07:36:42;49.00;44.56;57.91;;
73663;Laerm;61956;52.540;13.382;2022-11-18T07:39:13;47.89;41.73;56.73;;
73663;Laerm;61956;52.540;13.382;2022-11-18T07:41:43;48.91;43.50;56.45;;
73663;Laerm;61956;52.540;13.382;2022-11-18T07:44:13;49.16;43.34;59.45;;
73663;Laerm;61956;52.540;13.382;2022-11-18T07:46:44;47.54;43.65;53.40;;
73663;Laerm;61956;52.540;13.382;2022-11-18T07:49:13;48.35;43.40;56.78;;
73663;Laerm;61956;52.540;13.382;2022-11-18T07:51:42;48.99;43.06;62.15;;
73663;Laerm;61956;52.540;13.382;2022-11-18T07:54:14;47.30;43.21;58.98;;
73663;Laerm;61956;52.540;13.382;2022-11-18T07:56:44;48.66;44.27;57.05;;
73663;Laerm;61956;52.540;13.382;2022-11-18T07:59:13;49.19;43.84;60.92;;
73663;Laerm;61956;52.540;13.382;2022-11-18T08:01:43;49.55;44.19;59.36;;
73663;Laerm;61956;52.540;13.382;2022-11-18T08:04:13;49.81;44.75;58.20;;
73663;Laerm;61956;52.540;13.382;2022-11-18T08:06:43;48.03;43.23;60.24;;
73663;Laerm;61956;52.540;13.382;2022-11-18T08:09:14;48.46;43.11;55.37;;
73663;Laerm;61956;52.540;13.382;2022-11-18T08:11:44;49.38;43.07;66.39;;
73663;Laerm;61956;52.540;13.382;2022-11-18T08:14:13;48.58;42.63;63.95;;
73663;Laerm;61956;52.540;13.382;2022-11-18T08:16:42;49.17;44.04;60.78;;
73663;Laerm;61956;52.540;13.382;2022-11-18T08:19:11;49.97;42.47;65.17;;
73663;Laerm;61956;52.540;13.382;2022-11-18T08:21:41;48.84;42.61;60.85;;
73663;Laerm;61956;52.540;13.382;2022-11-18T08:24:10;49.21;43.83;67.51;;
73663;Laerm;61956;52.540;13.382;2022-11-18T08:26:42;49.69;43.32;67.54;;
73663;Laerm;61956;52.540;13.382;2022-11-18T08:29:11;49.20;44.26;57.64;;
73663;Laerm;61956;52.540;13.382;2022-11-18T08:31:40;49.66;44.05;59.42;;
73663;Laerm;61956;52.540;13.382;2022-11-18T08:34:09;49.00;43.61;67.88;;
73663;Laerm;61956;52.540;13.382;2022-11-18T08:36:38;48.73;43.59;61.66;;
73663;Laerm;61956;52.540;13.382;2022-11-18T08:39:10;47.99;43.07;54.92;;
73663;Laerm;61956;52.540;13.382;2022-11-18T08:41:43;48.08;42.85;56.75;;
73663;Laerm;61956;52.540;13.382;2022-11-18T08:44:14;50.27;43.62;71.36;;
73663;Laerm;61956;52.540;13.382;2022-11-18T08:49:14;49.65;45.36;65.59;;
73663;Laerm;61956;52.540;13.382;2022-11-18T08:51:44;47.61;41.41;54.62;;
73663;Laerm;61956;52.540;13.382;2022-11-18T08:54:13;47.04;41.59;67.65;;
73663;Laerm;61956;52.540;13.382;2022-11-18T08:56:45;49.42;41.84;70.66;;
73663;Laerm;61956;52.540;13.382;2022-11-18T08:59:16;47.56;42.70;59.51;;
73663;Laerm;61956;52.540;13.382;2022-11-18T09:01:45;47.96;42.97;56.36;;
73663;Laerm;61956;52.540;13.382;2022-11-18T09:04:14;49.00;43.91;64.55;;
73663;Laerm;61956;52.540;13.382;2022-11-18T09:06:44;47.90;42.56;62.11;;
73663;Laerm;61956;52.540;13.382;2022-11-18T09:09:13;47.15;41.96;56.61;;
73663;Laerm;61956;52.540;13.382;2022-11-18T09:11:44;47.31;41.10;56.55;;
73663;Laerm;61956;52.540;13.382;2022-11-18T09:14:14;47.92;42.72;58.89;;
73663;Laerm;61956;52.540;13.382;2022-11-18T09:16:43;49.73;43.55;65.95;;
73663;Laerm;61956;52.540;13.382;2022-11-18T09:19:14;48.33;42.91;59.13;;
73663;Laerm;61956;52.540;13.382;2022-11-18T09:21:43;48.56;43.11;57.81;;
73663;Laerm;61956;52.540;13.382;2022-11-18T09:24:13;47.32;42.39;55.36;;
73663;Laerm;61956;52.540;13.382;2022-11-18T09:26:45;48.62;42.67;65.61;;
73663;Laerm;61956;52.540;13.382;2022-11-18T09:29:15;48.33;43.01;60.92;;
73663;Laerm;61956;52.540;13.382;2022-11-18T09:31:45;48.04;42.48;58.25;;
73663;Laerm;61956;52.540;13.382;2022-11-18T09:34:14;46.83;42.08;55.51;;
73663;Laerm;61956;52.540;13.382;2022-11-18T09:36:44;47.95;42.99;54.13;;
73663;Laerm;61956;52.540;13.382;2022-11-18T09:39:13;45.61;41.43;54.40;;
73663;Laerm;61956;52.540;13.382;2022-11-18T09:41:55;47.46;42.35;54.30;;
73663;Laerm;61956;52.540;13.382;2022-11-18T09:44:46;47.21;40.99;56.56;;
73663;Laerm;61956;52.540;13.382;2022-11-18T09:47:26;48.05;42.21;55.72;;
73663;Laerm;61956;52.540;13.382;2022-11-18T09:49:59;48.11;43.33;55.17;;
73663;Laerm;61956;52.540;13.382;2022-11-18T09:52:35;46.13;41.38;54.52;;
73663;Laerm;61956;52.540;13.382;2022-11-18T09:55:11;48.04;42.29;54.63;;
73663;Laerm;61956;52.540;13.382;2022-11-18T09:57:47;48.56;42.94;62.72;;
73663;Laerm;61956;52.540;13.382;2022-11-18T10:00:21;48.04;42.72;55.69;;
73663;Laerm;61956;52.540;13.382;2022-11-18T10:03:00;47.68;42.02;55.21;;
73663;Laerm;61956;52.540;13.382;2022-11-18T10:05:37;47.34;42.86;54.11;;
73663;Laerm;61956;52.540;13.382;2022-11-18T10:08:23;48.97;42.79;56.67;;
73663;Laerm;61956;52.540;13.382;2022-11-18T10:11:01;48.55;43.02;55.00;;
73663;Laerm;61956;52.540;13.382;2022-11-18T10:13:53;50.25;44.07;76.23;;
73663;Laerm;61956;52.540;13.382;2022-11-18T10:16:37;49.05;43.84;57.41;;
73663;Laerm;61956;52.540;13.382;2022-11-18T10:19:26;49.12;43.42;58.00;;
73663;Laerm;61956;52.540;13.382;2022-11-18T10:27:19;49.38;42.95;64.85;;
73663;Laerm;61956;52.540;13.382;2022-11-18T10:29:54;47.60;41.76;61.94;;
73663;Laerm;61956;52.540;13.382;2022-11-18T10:32:25;49.05;44.27;56.81;;
73663;Laerm;61956;52.540;13.382;2022-11-18T10:34:57;50.21;44.14;63.66;;
73663;Laerm;61956;52.540;13.382;2022-11-18T10:37:29;48.98;44.02;58.90;;
73663;Laerm;61956;52.540;13.382;2022-11-18T10:40:02;53.06;42.47;69.59;;
73663;Laerm;61956;52.540;13.382;2022-11-18T10:42:40;49.12;43.63;66.42;;
73663;Laerm;61956;52.540;13.382;2022-11-18T10:45:25;48.33;42.38;59.66;;
73663;Laerm;61956;52.540;13.382;2022-11-18T10:48:12;49.41;41.17;65.60;;
73663;Laerm;61956;52.540;13.382;2022-11-18T10:50:46;48.95;41.57;64.49;;
73663;Laerm;61956;52.540;13.382;2022-11-18T10:53:29;49.23;42.61;68.34;;
73663;Laerm;61956;52.540;13.382;2022-11-18T10:56:01;49.33;43.12;60.16;;
73663;Laerm;61956;52.540;13.382;2022-11-18T10:58:40;49.28;43.99;63.24;;
73663;Laerm;61956;52.540;13.382;2022-11-18T11:01:21;50.44;43.79;66.47;;
73663;Laerm;61956;52.540;13.382;2022-11-18T11:03:59;51.56;43.84;70.61;;
73663;Laerm;61956;52.540;13.382;2022-11-18T11:06:33;49.40;42.26;63.96;;
73663;Laerm;61956;52.540;13.382;2022-11-18T11:09:07;49.04;43.25;59.27;;
73663;Laerm;61956;52.540;13.382;2022-11-18T11:11:39;49.53;43.33;59.53;;
73663;Laerm;61956;52.540;13.382;2022-11-18T11:14:21;48.84;43.52;58.22;;
73663;Laerm;61956;52.540;13.382;2022-11-18T11:17:01;47.28;42.35;65.38;;
73663;Laerm;61956;52.540;13.382;2022-11-18T11:19:47;48.34;41.86;58.41;;
73663;Laerm;61956;52.540;13.382;2022-11-18T11:22:19;48.01;41.75;59.30;;
73663;Laerm;61956;52.540;13.382;2022-11-18T11:24:48;48.12;42.62;64.67;;
73663;Laerm;61956;52.540;13.382;2022-11-18T11:27:32;50.61;43.82;65.63;;
73663;Laerm;61956;52.540;13.382;2022-11-18T11:30:19;48.45;43.67;63.04;;
73663;Laerm;61956;52.540;13.382;2022-11-18T11:33:18;48.69;43.71;62.14;;
73663;Laerm;61956;52.540;13.382;2022-11-18T11:36:08;48.05;42.99;56.59;;
73663;Laerm;61956;52.540;13.382;2022-11-18T11:38:54;48.80;42.44;59.97;;
73663;Laerm;61956;52.540;13.382;2022-11-18T11:41:31;48.85;42.82;63.25;;
73663;Laerm;61956;52.540;13.382;2022-11-18T11:44:30;47.58;42.88;58.47;;
73663;Laerm;61956;52.540;13.382;2022-11-18T11:47:19;48.66;41.62;60.11;;
73663;Laerm;61956;52.540;13.382;2022-11-18T11:50:15;47.96;41.93;56.04;;
73663;Laerm;61956;52.540;13.382;2022-11-18T11:53:10;48.85;43.14;62.13;;
73663;Laerm;61956;52.540;13.382;2022-11-18T11:55:57;47.89;42.79;62.66;;
73663;Laerm;61956;52.540;13.382;2022-11-18T11:58:45;48.16;41.82;57.34;;
73663;Laerm;61956;52.540;13.382;2022-11-18T12:01:26;47.87;42.26;62.27;;
73663;Laerm;61956;52.540;13.382;2022-11-18T12:04:13;48.76;42.45;59.10;;
73663;Laerm;61956;52.540;13.382;2022-11-18T12:06:52;48.98;43.26;57.46;;
73663;Laerm;61956;52.540;13.382;2022-11-18T12:09:41;50.14;42.84;68.39;;
73663;Laerm;61956;52.540;13.382;2022-11-18T12:12:25;47.50;42.94;55.03;;
73663;Laerm;61956;52.540;13.382;2022-11-18T12:15:23;47.22;42.62;57.25;;
73663;Laerm;61956;52.540;13.382;2022-11-18T12:18:03;47.53;42.66;57.71;;
73663;Laerm;61956;52.540;13.382;2022-11-18T12:20:42;48.97;43.63;57.96;;
73663;Laerm;61956;52.540;13.382;2022-11-18T12:23:24;47.69;42.18;55.21;;
73663;Laerm;61956;52.540;13.382;2022-11-18T12:26:05;47.06;40.96;59.00;;
73663;Laerm;61956;52.540;13.382;2022-11-18T12:28:38;48.09;41.57;66.60;;
73663;Laerm;61956;52.540;13.382;2022-11-18T12:31:33;47.12;40.98;56.88;;
73663;Laerm;61956;52.540;13.382;2022-11-18T12:34:18;48.98;41.82;62.29;;
73663;Laerm;61956;52.540;13.382;2022-11-18T12:36:48;48.14;42.44;57.60;;
73663;Laerm;61956;52.540;13.382;2022-11-18T12:39:59;48.66;41.97;61.51;;
73663;Laerm;61956;52.540;13.382;2022-11-18T12:42:41;50.62;43.49;72.95;;
73663;Laerm;61956;52.540;13.382;2022-11-18T12:45:56;51.48;44.29;71.44;;
73663;Laerm;61956;52.540;13.382;2022-11-18T12:48:32;47.64;43.03;57.00;;
73663;Laerm;61956;52.540;13.382;2022-11-18T12:51:45;48.39;43.86;59.24;;
73663;Laerm;61956;52.540;13.382;2022-11-18T12:54:36;48.13;43.00;58.92;;
73663;Laerm;61956;52.540;13.382;2022-11-18T12:57:20;48.79;41.60;64.53;;
73663;Laerm;61956;52.540;13.382;2022-11-18T12:59:50;60.02;41.39;75.92;;
73663;Laerm;61956;52.540;13.382;2022-11-18T13:02:23;47.68;41.71;56.61;;
73663;Laerm;61956;52.540;13.382;2022-11-18T13:05:07;47.55;40.91;57.11;;
73663;Laerm;61956;52.540;13.382;2022-11-18T13:07:46;48.08;42.23;63.61;;
73663;Laerm;61956;52.540;13.382;2022-11-18T13:10:32;48.39;42.21;56.28;;
73663;Laerm;61956;52.540;13.382;2022-11-18T13:13:21;46.58;41.14;56.24;;
73663;Laerm;61956;52.540;13.382;2022-11-18T13:15:53;50.51;42.75;74.56;;
73663;Laerm;61956;52.540;13.382;2022-11-18T13:18:47;48.00;41.87;55.49;;
73663;Laerm;61956;52.540;13.382;2022-11-18T13:21:23;47.03;41.32;53.64;;
73663;Laerm;61956;52.540;13.382;2022-11-18T13:24:06;48.16;41.29;68.19;;
73663;Laerm;61956;52.540;13.382;2022-11-18T13:26:40;47.02;41.35;61.83;;
73663;Laerm;61956;52.540;13.382;2022-11-18T13:29:33;47.48;41.96;60.19;;
73663;Laerm;61956;52.540;13.382;2022-11-18T13:32:19;48.58;41.06;68.86;;
73663;Laerm;61956;52.540;13.382;2022-11-18T13:34:52;48.05;42.00;71.59;;
73663;Laerm;61956;52.540;13.382;2022-11-18T13:37:24;47.54;42.68;59.37;;
73663;Laerm;61956;52.540;13.382;2022-11-18T13:39:54;47.55;42.61;58.81;;
73663;Laerm;61956;52.540;13.382;2022-11-18T13:42:26;47.19;41.98;54.00;;
73663;Laerm;61956;52.540;13.382;2022-11-18T13:45:01;51.53;42.92;71.18;;
73663;Laerm;61956;52.540;13.382;2022-11-18T13:47:37;47.59;41.09;55.62;;
73663;Laerm;61956;52.540;13.382;2022-11-18T13:50:19;46.87;40.74;56.86;;
73663;Laerm;61956;52.540;13.382;2022-11-18T13:53:02;47.05;40.90;55.60;;
73663;Laerm;61956;52.540;13.382;2022-11-18T13:55:38;47.35;41.07;58.37;;
73663;Laerm;61956;52.540;13.382;2022-11-18T13:58:31;46.83;41.77;53.44;;
73663;Laerm;61956;52.540;13.382;2022-11-18T14:01:05;46.65;41.71;60.73;;
73663;Laerm;61956;52.540;13.382;2022-11-18T14:03:49;47.61;42.30;58.96;;
73663;Laerm;61956;52.540;13.382;2022-11-18T14:06:27;47.68;42.10;56.93;;
73663;Laerm;61956;52.540;13.382;2022-11-18T14:09:06;47.54;41.10;54.46;;
73663;Laerm;61956;52.540;13.382;2022-11-18T14:11:46;47.68;42.73;54.35;;
73663;Laerm;61956;52.540;13.382;2022-11-18T14:14:31;47.49;42.24;55.79;;
73663;Laerm;61956;52.540;13.382;2022-11-18T14:17:17;47.82;43.16;54.32;;
73663;Laerm;61956;52.540;13.382;2022-11-18T14:19:49;48.10;42.64;56.53;;
73663;Laerm;61956;52.540;13.382;2022-11-18T14:22:22;47.73;43.10;53.83;;
73663;Laerm;61956;52.540;13.382;2022-11-18T14:24:55;48.47;43.39;56.50;;
73663;Laerm;61956;52.540;13.382;2022-11-18T14:27:35;49.48;42.34;62.29;;
73663;Laerm;61956;52.540;13.382;2022-11-18T14:30:31;49.69;43.70;58.44;;